Terminal Aerodrome Forecast
Issued by NWS

Home | Current Version | Previous Version | Text Only | Print | Product List | Glossary On
Versions: 1 2 3 4 5 6 7 8 9 10 11 12 13 14 15 16 17 18 19 20 21
000
FTUS41 KBGM 302100 AAC
TAFELM
TAF AMD
KELM 302113Z 3021/0118 04004KT P6SM -SHRA BKN050
      TEMPO 3021/3022 6SM -TSRA OVC035CB
     FM010300 VRB03KT 3SM BR SCT002 BKN070
     FM010600 00000KT 1/2SM FG OVC002
     FM011400 00000KT 3SM BR SCT002
     FM011500 VRB03KT P6SM BKN035=

USA.gov is the U.S. government's official web portal to all federal, state and local government web resources and services.